Warroad, MN (56763)

06:14 CST le 24 novembre 2014 (GMT -0600)
Warroad International-Carlson | Change Station
CLOSE
Current Station
Aéroport
Location: Warroad,
Altitude: 1073 ft
Stations météo à proximité

Alt. 1073 ft 48.94 °N, 95.35 °W | Updated 20 minutes ago

Neige
Neige
12 ° F
Paraît 2 ° F
N
7
Vent Variable Vent de NO
Gusts 10 mph

Aujourd'hui
Haut(e) -- | Bas -- ° F
--% Risque de précip.
Hier
Haut(e) -- | Bas -- ° F
Precip. -- pouce
7:44 AM 4:31 PM
Lune montante, 5% visible
Pression 29.55 pouce
Visibilité 7.0 Miles terrestres
Nuages Nuageux 1400 ft
Couvert 2200 ft
Refroidissement éolien 2 ° F
Point de rosée 9 ° F
Humidité 85%
Précipitations 0.00 pouce
Profondeur de la couche neigeuse Non disponible.
UV 0 sur 12
Pollen .10 sur 12
Qualité de l'air Non disponible.
Flu Activity Non disponible.
METAR KRRT 241154Z AUTO 32006G09KT 7SM -SN BKN014 OVC022 M11/M13 A2955 RMK AO2

More Conditions Fewer Conditions

Pression 29.55 pouce
Visibilité 7.0 Miles terrestres
Nuages Nuageux 1400 ft
Couvert 2200 ft
Refroidissement éolien 2 ° F
Point de rosée 9 ° F
Humidité 85%
Précipitations 0.00 pouce
Profondeur de la couche neigeuse Non disponible.
UV 0 sur 12
Pollen .10 sur 12
Qualité de l'air Non disponible.
Flu Activity Non disponible.
METAR KRRT 241154Z AUTO 32006G09KT 7SM -SN BKN014 OVC022 M11/M13 A2955 RMK AO2

More Conditions Fewer Conditions

10-Day Weather Forecast

Almanac

Astronomie

Nov. 24, 2014 Lever Coucher
Temps réel
Crépuscule civil
Crépuscule nautique
Crépuscule astronomique
Lune
Durée de lumière visible
Longueur du jour
Tomorrow will be .
, % of the Moon is Illuminated

Extrêmes aujourd'hui

State Highs State Lows

Community

WunderPhotos

Upload Photos

1,773,319 Photos téléchargées !

WunderBlogs® & News

Nearby

Qualité de l'air

  Qualité de l'air Indice de la qualité de l'air Polluant
Not available.

Épaisseur de neige

Station Depth Altitude

Activité sismique

Ville Distance Mag. Time & Date
Minimum magnitude displayed is 2.5.

Températures des eaux côtières

Lieu Température

Stations météo à proximité